»·PEaware :: WAT602 KDFW-KSAN

WAT602 :: KDFW-KSAN

FLIGHT INFORMATION

Flight Status: Arrived
Operator:
Walker Air Transport
More flights by this operator :: More flights under this callsign
Pilot: Kevin M. (32630)
Aircraft: CANADAIR CL-600 CRJ-900
(CRJ9)
More flights by this aircraft type
Origin: KDFW Dallas-Ft Worth Intl
United States
Destination: KSAN San Diego Intl-Lindbergh
United States
More flights between these airports :: More routes between these airports
Route: WSTEX2 CIKAN EWM J4 SSO GBN J2 HOGGZ LUCKI1
File this flight plan on PilotEdge
Remarks: RMK / MSFS2020
Altitude:
(Current/Filed)
36,000ft
Speed:
(Current/Filed)
451kts
Departed: 08-Jan-22 03:40 PM
Arrived: 08-Jan-22 06:00 PM
Distance/Time
Traveled:
1015nm/2:20
Distance/Time
To Go:
Arrived

Flight Plot

Page will automatically refresh every two minutes.

Flight plan parsing failed; only flown route is shown


Map Options




Map Legend


Flown Route
Filed Route
Departure Airport
Arrival Airport
Navaid (VOR, NDB)
Fix

Horizontal Profiles

Position Reports

Time Latitude Longitude Heading Altitude Ground
Speed
08-Jan-22 15:38 32.547159 -99.310893 262 36317ft 448kts
08-Jan-22 15:39 32.537118 -99.459594 265 36309ft 454kts
08-Jan-22 15:40 32.528735 -99.609325 264 36302ft 456kts
08-Jan-22 15:41 32.519091 -99.758656 264 36298ft 456kts
08-Jan-22 15:42 32.509480 -99.908689 264 36296ft 456kts
08-Jan-22 15:43 32.500332 -100.058179 264 36295ft 456kts
08-Jan-22 15:44 32.490700 -100.208064 264 36294ft 456kts
08-Jan-22 15:45 32.480331 -100.357756 264 36294ft 455kts
08-Jan-22 15:46 32.470699 -100.506951 264 36292ft 455kts
08-Jan-22 15:47 32.460793 -100.656591 264 36291ft 455kts
08-Jan-22 15:48 32.450490 -100.805962 264 36293ft 455kts
08-Jan-22 15:49 32.439954 -100.955351 264 36292ft 455kts
08-Jan-22 15:50 32.429290 -101.104791 264 36291ft 456kts
08-Jan-22 15:51 32.418503 -101.254341 264 36291ft 456kts
08-Jan-22 15:52 32.407591 -101.402120 263 36336ft 442kts
08-Jan-22 15:53 32.396784 -101.545560 263 36327ft 436kts
08-Jan-22 15:54 32.386120 -101.688255 263 36330ft 435kts
08-Jan-22 15:55 32.375473 -101.830523 263 36328ft 434kts
08-Jan-22 15:56 32.364250 -101.972986 263 36326ft 433kts
08-Jan-22 15:57 32.353052 -102.114219 263 36321ft 431kts
08-Jan-22 15:58 32.341733 -102.255412 263 36317ft 430kts
08-Jan-22 15:59 32.330239 -102.395828 263 36314ft 429kts
08-Jan-22 16:00 32.318526 -102.536206 263 36311ft 429kts
08-Jan-22 16:01 32.306605 -102.676720 263 36302ft 429kts
08-Jan-22 16:02 32.294599 -102.816996 263 36298ft 428kts
08-Jan-22 16:03 32.282616 -102.956623 263 36294ft 428kts
08-Jan-22 16:04 32.270615 -103.096508 263 36293ft 427kts
08-Jan-22 16:05 32.258588 -103.235987 263 36290ft 426kts
08-Jan-22 16:06 32.246198 -103.375298 263 36293ft 426kts
08-Jan-22 16:07 32.233644 -103.514310 263 36283ft 425kts
08-Jan-22 16:08 32.220823 -103.652833 263 36284ft 424kts
08-Jan-22 16:09 32.207918 -103.791324 262 36285ft 424kts
08-Jan-22 16:10 32.194813 -103.929587 263 36282ft 422kts
08-Jan-22 16:11 32.181581 -104.067194 262 36264ft 420kts
08-Jan-22 16:12 32.168392 -104.203766 262 36252ft 419kts
08-Jan-22 16:13 32.155050 -104.340376 263 36258ft 418kts
08-Jan-22 16:14 32.141700 -104.476415 263 36255ft 418kts
08-Jan-22 16:15 32.128435 -104.612643 263 36223ft 416kts
08-Jan-22 16:16 32.114833 -104.748353 262 36267ft 417kts
08-Jan-22 16:17 32.101348 -104.883926 263 36293ft 418kts
08-Jan-22 16:18 32.087335 -105.020562 262 36296ft 419kts
08-Jan-22 16:19 32.073225 -105.156417 262 36256ft 417kts
08-Jan-22 16:20 32.058903 -105.292047 262 36256ft 415kts
08-Jan-22 16:21 32.044465 -105.426865 262 36253ft 414kts
08-Jan-22 16:22 32.030135 -105.561183 262 36249ft 413kts
08-Jan-22 16:23 32.015350 -105.695314 262 36258ft 412kts
08-Jan-22 16:24 32.000628 -105.829431 262 36246ft 411kts
08-Jan-22 16:25 31.986121 -105.962550 262 36239ft 410kts
08-Jan-22 16:26 31.971701 -106.095682 262 36241ft 409kts
08-Jan-22 16:27 31.956634 -106.228673 261 36232ft 408kts
08-Jan-22 16:28 31.960662 -106.361511 277 36239ft 410kts
08-Jan-22 16:29 31.978312 -106.493850 275 36176ft 407kts
08-Jan-22 16:30 31.993481 -106.626227 275 36231ft 408kts
08-Jan-22 16:31 32.008588 -106.758547 275 36217ft 407kts
08-Jan-22 16:32 32.023613 -106.891173 275 36215ft 407kts
08-Jan-22 16:33 32.038346 -107.022924 275 36212ft 406kts
08-Jan-22 16:34 32.052966 -107.155010 275 36199ft 406kts
08-Jan-22 16:35 32.067378 -107.286988 275 36215ft 406kts
08-Jan-22 16:36 32.081892 -107.418959 275 36207ft 406kts
08-Jan-22 16:37 32.096663 -107.550889 275 36186ft 405kts
08-Jan-22 16:38 32.110671 -107.682342 275 36156ft 403kts
08-Jan-22 16:39 32.124558 -107.813961 274 36183ft 404kts
08-Jan-22 16:40 32.138244 -107.945613 274 36182ft 404kts
08-Jan-22 16:41 32.151755 -108.076930 274 36180ft 404kts
08-Jan-22 16:42 32.165523 -108.208562 274 36173ft 403kts
08-Jan-22 16:43 32.179349 -108.339624 274 36171ft 403kts
08-Jan-22 16:44 32.192502 -108.471147 274 36171ft 403kts
08-Jan-22 16:45 32.205549 -108.602317 274 36155ft 402kts
08-Jan-22 16:46 32.218436 -108.733571 274 36158ft 402kts
08-Jan-22 16:47 32.231329 -108.864718 273 36153ft 401kts
08-Jan-22 16:48 32.243637 -108.995396 273 36123ft 401kts
08-Jan-22 16:49 32.255889 -109.126374 273 36151ft 401kts
08-Jan-22 16:50 32.268624 -109.256948 274 36133ft 400kts
08-Jan-22 16:51 32.295702 -109.385197 281 36124ft 403kts
08-Jan-22 16:52 32.323662 -109.513232 280 36114ft 402kts
08-Jan-22 16:53 32.350735 -109.641402 280 36109ft 401kts
08-Jan-22 16:54 32.377880 -109.769266 280 36107ft 401kts
08-Jan-22 16:55 32.404865 -109.897626 280 36112ft 402kts
08-Jan-22 16:56 32.431797 -110.025752 280 36090ft 401kts
08-Jan-22 16:57 32.458591 -110.153942 280 36096ft 401kts
08-Jan-22 16:58 32.485074 -110.282810 280 36156ft 403kts
08-Jan-22 16:59 32.511747 -110.412322 280 36117ft 405kts
08-Jan-22 17:00 32.538864 -110.541755 280 36080ft 403kts
08-Jan-22 17:01 32.565395 -110.670164 279 36060ft 401kts
08-Jan-22 17:02 32.591552 -110.798665 279 36086ft 401kts
08-Jan-22 17:03 32.617539 -110.927543 279 36077ft 402kts
08-Jan-22 17:04 32.643439 -111.056572 279 36067ft 402kts
08-Jan-22 17:05 32.669294 -111.186025 279 36061ft 403kts
08-Jan-22 17:06 32.694893 -111.315527 279 36055ft 403kts
08-Jan-22 17:07 32.720394 -111.444449 279 36049ft 401kts
08-Jan-22 17:08 32.745922 -111.573719 279 36041ft 402kts
08-Jan-22 17:09 32.771543 -111.703246 279 36034ft 402kts
08-Jan-22 17:10 32.796670 -111.832624 279 36028ft 402kts
08-Jan-22 17:11 32.821628 -111.961868 279 36022ft 401kts
08-Jan-22 17:12 32.846423 -112.091384 279 36014ft 401kts
08-Jan-22 17:13 32.871024 -112.220534 279 36021ft 401kts
08-Jan-22 17:14 32.895591 -112.350218 279 36010ft 401kts
08-Jan-22 17:15 32.919942 -112.479455 279 36016ft 401kts
08-Jan-22 17:17 32.944069 -112.609061 279 36009ft 401kts
08-Jan-22 17:18 32.948687 -112.740124 264 36005ft 396kts
08-Jan-22 17:19 32.929896 -112.869335 260 35997ft 396kts
08-Jan-22 17:20 32.912268 -112.998625 261 35993ft 396kts
08-Jan-22 17:21 32.894557 -113.128245 261 35997ft 397kts
08-Jan-22 17:22 32.876849 -113.257878 261 35997ft 397kts
08-Jan-22 17:23 32.858899 -113.387643 261 35999ft 397kts
08-Jan-22 17:24 32.840735 -113.517127 260 36001ft 397kts
08-Jan-22 17:25 32.822403 -113.646424 260 36007ft 397kts
08-Jan-22 17:26 32.803896 -113.775948 260 36006ft 397kts
08-Jan-22 17:27 32.785331 -113.905182 260 36004ft 397kts
08-Jan-22 17:28 32.773808 -114.035440 270 36005ft 398kts
08-Jan-22 17:29 32.779090 -114.166875 270 36010ft 398kts
08-Jan-22 17:30 32.784275 -114.298573 271 36005ft 399kts
08-Jan-22 17:31 32.797092 -114.429514 284 36014ft 404kts
08-Jan-22 17:32 32.835071 -114.555822 284 36011ft 405kts
08-Jan-22 17:33 32.869391 -114.683549 283 36002ft 405kts
08-Jan-22 17:34 32.879059 -114.815498 267 36026ft 401kts
08-Jan-22 17:35 32.874477 -114.946015 267 34066ft 385kts
08-Jan-22 17:36 32.871446 -115.072110 267 31878ft 379kts
08-Jan-22 17:36 32.868896 -115.176901 267 30066ft 382kts
08-Jan-22 17:38 32.865034 -115.324771 267 27630ft 388kts
08-Jan-22 17:39 32.849732 -115.452885 260 25551ft 393kts
08-Jan-22 17:40 32.828828 -115.580960 261 23459ft 396kts
08-Jan-22 17:40 32.812019 -115.687752 261 21705ft 388kts
08-Jan-22 17:41 32.791342 -115.811704 260 19589ft 377kts
08-Jan-22 17:43 32.776794 -115.952132 267 17192ft 349kts
08-Jan-22 17:44 32.769242 -116.061418 266 15841ft 325kts
08-Jan-22 17:44 32.762455 -116.150473 266 14838ft 324kts
08-Jan-22 17:45 32.754237 -116.257153 266 13627ft 322kts
08-Jan-22 17:46 32.746230 -116.359097 265 12354ft 293kts
08-Jan-22 17:47 32.738997 -116.451019 266 11124ft 272kts
08-Jan-22 17:48 32.731801 -116.543004 264 9872ft 286kts
08-Jan-22 17:49 32.722514 -116.632910 264 8420ft 265kts
08-Jan-22 17:50 32.715348 -116.714902 265 7262ft 249kts
08-Jan-22 17:51 32.709475 -116.794883 264 6226ft 236kts
08-Jan-22 17:52 32.692845 -116.868466 245 5192ft 232kts
08-Jan-22 17:53 32.671846 -116.939864 274 4107ft 225kts
08-Jan-22 17:54 32.686673 -117.005771 285 3128ft 182kts
08-Jan-22 17:55 32.700045 -117.056501 291 2060ft 140kts
08-Jan-22 17:56 32.711844 -117.099598 286 1591ft 146kts
08-Jan-22 17:57 32.723803 -117.149445 286 680ft 157kts
08-Jan-22 17:58 32.733523 -117.189576 286 19ft 47kts
08-Jan-22 17:59 32.733824 -117.194959 189 21ft 7kts
08-Jan-22 18:00 32.732535 -117.195428 307 18ft 0kts
08-Jan-22 18:01 32.732535 -117.195428 307 18ft 0kts
08-Jan-22 18:02 32.732535 -117.195428 307 18ft 0kts
08-Jan-22 18:03 32.732535 -117.195428 307 18ft 0kts
08-Jan-22 18:04 32.732535 -117.195428 307 18ft 0kts
08-Jan-22 18:05 32.732535 -117.195428 307 18ft 0kts
08-Jan-22 18:06 32.732535 -117.195428 307 18ft 0kts
08-Jan-22 18:07 32.732535 -117.195428 307 18ft 0kts

Navigation Log

Ident Type
Flight plan parsing failed, navigation log unavailable